createdAt,value
2023-04-03T00:01:54.062Z,100.00
2023-04-03T00:21:55.560Z,100.00
2023-04-03T00:41:57.274Z,100.00
2023-04-03T01:01:58.775Z,100.00
2023-04-03T01:22:00.576Z,100.00
2023-04-03T01:42:02.117Z,100.00
2023-04-03T02:02:08.816Z,100.00
2023-04-03T02:22:11.388Z,100.00
2023-04-03T02:42:13.044Z,100.00
2023-04-03T03:02:14.736Z,100.00
2023-04-03T03:22:16.493Z,100.00
2023-04-03T03:42:18.662Z,100.00
2023-04-03T04:02:20.430Z,100.00
2023-04-03T04:22:22.161Z,100.00
2023-04-03T04:42:23.882Z,100.00
2023-04-03T05:02:26.178Z,100.00
2023-04-03T05:22:28.820Z,99.50
2023-04-03T05:42:35.339Z,97.06
2023-04-03T06:02:37.379Z,94.78
2023-04-03T06:22:39.259Z,93.30
2023-04-03T06:42:40.940Z,88.81
2023-04-03T07:02:46.585Z,77.88
2023-04-03T07:22:48.121Z,72.95
2023-04-03T07:42:49.699Z,70.48
2023-04-03T08:02:51.354Z,63.43
2023-04-03T08:22:53.056Z,61.87
2023-04-03T08:42:54.799Z,61.10
2023-04-03T09:02:56.699Z,57.74
2023-04-03T09:22:58.246Z,55.52
2023-04-03T09:43:01.452Z,49.85
2023-04-03T10:03:03.384Z,51.41
2023-04-03T10:23:05.116Z,45.65
2023-04-03T10:43:06.687Z,46.09
2023-04-03T11:03:08.560Z,46.85
2023-04-03T11:23:10.093Z,46.92
2023-04-03T11:43:11.829Z,47.71
2023-04-03T12:03:13.539Z,50.13
2023-04-03T12:23:15.234Z,45.95
2023-04-03T12:43:16.784Z,44.12
2023-04-03T13:03:20.468Z,44.47
2023-04-03T13:23:23.227Z,43.99
2023-04-03T13:43:24.806Z,43.81
2023-04-03T14:23:28.994Z,43.45
2023-04-03T14:43:31.135Z,43.23
2023-04-03T15:03:32.890Z,42.04
2023-04-03T15:23:34.703Z,44.36
2023-04-03T15:43:36.930Z,41.88
2023-04-03T16:03:38.665Z,43.38
2023-04-03T16:23:40.445Z,43.88
2023-04-03T17:03:44.514Z,46.07
2023-04-03T17:23:45.974Z,47.03
2023-04-03T17:43:47.671Z,48.77
2023-04-03T18:03:49.278Z,50.10
2023-04-03T18:23:51.373Z,50.87
2023-04-03T18:43:52.939Z,53.19
2023-04-03T19:03:54.632Z,53.84
2023-04-03T19:23:56.201Z,54.76
2023-04-03T19:43:57.937Z,57.05
2023-04-03T20:04:00.760Z,58.09
2023-04-03T20:24:02.510Z,57.93
2023-04-03T21:05:03.812Z,57.82
2023-04-03T21:25:08.578Z,57.73
2023-04-03T21:45:10.210Z,59.49
2023-04-03T22:05:12.036Z,60.77
2023-04-03T22:25:13.607Z,63.23
2023-04-03T22:45:15.299Z,64.68
2023-04-03T23:05:16.894Z,67.46
2023-04-03T23:25:18.597Z,66.99
2023-04-03T23:45:20.096Z,66.61
